createdAt,value
2023-03-02T00:01:50.978Z,15.82
2023-03-02T00:03:51.985Z,15.82
2023-03-02T00:05:52.658Z,15.79
2023-03-02T00:07:53.351Z,15.78
2023-03-02T00:09:54.085Z,15.76
2023-03-02T00:11:54.773Z,15.75
2023-03-02T00:13:55.480Z,15.72
2023-03-02T00:15:56.234Z,15.75
2023-03-02T00:17:56.925Z,15.72
2023-03-02T00:19:57.621Z,15.72
2023-03-02T00:21:58.343Z,15.75
2023-03-02T00:23:59.057Z,15.72
2023-03-02T00:25:59.757Z,15.68
2023-03-02T00:28:00.462Z,15.67
2023-03-02T00:30:01.155Z,15.67
2023-03-02T00:32:01.903Z,15.67
2023-03-02T00:34:02.578Z,15.64
2023-03-02T00:36:03.408Z,15.63
2023-03-02T00:38:04.142Z,15.61
2023-03-02T00:40:04.836Z,15.63
2023-03-02T00:42:05.550Z,15.63
2023-03-02T00:44:06.248Z,15.61
2023-03-02T00:46:06.975Z,15.61
2023-03-02T00:48:07.662Z,15.60
2023-03-02T00:50:08.365Z,15.59
2023-03-02T00:52:09.086Z,15.59
2023-03-02T00:54:09.796Z,15.59
2023-03-02T00:56:10.482Z,15.59
2023-03-02T00:58:11.210Z,15.56
2023-03-02T01:00:11.914Z,15.56
2023-03-02T01:02:12.691Z,15.51
2023-03-02T01:04:13.379Z,15.52
2023-03-02T01:06:14.076Z,15.51
2023-03-02T01:08:14.797Z,15.51
2023-03-02T01:10:15.490Z,15.49
2023-03-02T01:12:16.199Z,15.49
2023-03-02T01:14:16.919Z,15.51
2023-03-02T01:16:17.691Z,15.46
2023-03-02T01:18:18.449Z,15.45
2023-03-02T01:20:19.142Z,15.46
2023-03-02T01:22:19.840Z,15.48
2023-03-02T01:24:20.546Z,15.46
2023-03-02T01:26:21.243Z,15.46
2023-03-02T01:28:21.966Z,15.43
2023-03-02T01:30:22.664Z,15.42
2023-03-02T01:32:23.502Z,15.42
2023-03-02T01:34:24.201Z,15.41
2023-03-02T01:36:24.905Z,15.41
2023-03-02T01:38:25.628Z,15.36
2023-03-02T01:40:26.386Z,15.39
2023-03-02T01:42:27.091Z,15.36
2023-03-02T01:44:27.800Z,15.38
2023-03-02T01:46:28.495Z,15.39
2023-03-02T01:48:29.213Z,15.38
2023-03-02T01:50:29.906Z,15.35
2023-03-02T01:52:30.609Z,15.33
2023-03-02T01:54:31.326Z,15.35
2023-03-02T01:56:32.426Z,15.33
2023-03-02T01:58:32.777Z,15.35
2023-03-02T02:00:33.498Z,15.35
2023-03-02T02:02:34.188Z,15.33
2023-03-02T02:04:34.919Z,15.31
2023-03-02T02:06:35.617Z,15.31
2023-03-02T02:08:36.364Z,15.35
2023-03-02T02:10:37.136Z,15.30
2023-03-02T02:12:37.809Z,15.33
2023-03-02T02:14:38.517Z,15.31
2023-03-02T02:16:39.514Z,15.30
2023-03-02T02:18:39.712Z,15.30
2023-03-02T02:20:40.396Z,15.31
2023-03-02T02:22:41.113Z,15.31
2023-03-02T02:24:41.809Z,15.28
2023-03-02T02:26:42.519Z,15.31
2023-03-02T02:28:43.270Z,15.31
2023-03-02T02:30:43.990Z,15.31
2023-03-02T02:32:44.732Z,15.30
2023-03-02T02:34:45.472Z,15.28
2023-03-02T02:36:46.203Z,15.28
2023-03-02T02:38:46.894Z,15.28
2023-03-02T02:40:47.588Z,15.33
2023-03-02T02:42:48.304Z,15.31
2023-03-02T02:44:49.002Z,15.33
2023-03-02T02:46:49.713Z,15.28
2023-03-02T02:48:50.439Z,15.28
2023-03-02T02:50:51.128Z,15.28
2023-03-02T02:52:51.834Z,15.28
2023-03-02T02:54:52.550Z,15.28
2023-03-02T02:56:53.302Z,15.27
2023-03-02T02:58:54.081Z,15.28
2023-03-02T03:00:54.826Z,15.26
2023-03-02T03:02:55.524Z,15.27
2023-03-02T03:04:56.231Z,15.27
2023-03-02T03:06:56.932Z,15.26
2023-03-02T03:08:57.658Z,15.27
2023-03-02T03:10:58.338Z,15.23
2023-03-02T03:12:59.040Z,15.27
2023-03-02T03:14:59.750Z,15.26
2023-03-02T03:17:00.487Z,15.23
2023-03-02T03:19:01.171Z,15.24
2023-03-02T03:21:01.881Z,15.23
2023-03-02T03:23:02.573Z,15.23
2023-03-02T03:25:03.311Z,15.21
2023-03-02T03:27:04.025Z,15.24
2023-03-02T03:29:04.752Z,15.23
2023-03-02T03:31:05.528Z,15.20
2023-03-02T03:33:06.186Z,15.21
2023-03-02T03:35:06.895Z,15.21
2023-03-02T03:37:07.605Z,15.24
2023-03-02T03:39:08.302Z,15.21
2023-03-02T03:41:09.033Z,15.21
2023-03-02T03:43:09.729Z,15.21
2023-03-02T03:45:10.488Z,15.24
2023-03-02T03:47:11.210Z,15.23
2023-03-02T03:49:11.920Z,15.23
2023-03-02T03:51:12.651Z,15.23
2023-03-02T03:53:13.350Z,15.23
2023-03-02T03:55:14.078Z,15.24
2023-03-02T03:57:14.791Z,15.23
2023-03-02T03:59:15.514Z,15.23
2023-03-02T04:01:16.295Z,15.21
2023-03-02T04:03:16.951Z,15.23
2023-03-02T04:05:17.642Z,15.23
2023-03-02T04:07:18.364Z,15.23
2023-03-02T04:09:19.054Z,15.23
2023-03-02T04:11:19.755Z,15.21
2023-03-02T04:13:20.485Z,15.21
2023-03-02T04:15:21.198Z,15.23
2023-03-02T04:17:21.918Z,15.24
2023-03-02T04:19:22.664Z,15.21
2023-03-02T04:21:23.347Z,15.24
2023-03-02T04:23:24.052Z,15.21
2023-03-02T04:25:24.786Z,15.23
2023-03-02T04:27:25.490Z,15.23
2023-03-02T04:29:26.227Z,15.24
2023-03-02T04:31:26.999Z,15.24
2023-03-02T04:33:27.684Z,15.21
2023-03-02T04:35:28.465Z,15.21
2023-03-02T04:37:29.171Z,15.23
2023-03-02T04:39:29.874Z,15.23
2023-03-02T04:41:30.589Z,15.20
2023-03-02T04:43:31.293Z,15.23
2023-03-02T04:45:31.997Z,15.23
2023-03-02T04:47:32.720Z,15.23
2023-03-02T04:49:33.417Z,15.21
2023-03-02T04:51:34.135Z,15.19
2023-03-02T04:53:34.842Z,15.20
2023-03-02T04:55:35.539Z,15.23
2023-03-02T04:57:36.274Z,15.23
2023-03-02T04:59:36.972Z,15.20
2023-03-02T05:01:37.671Z,15.21
2023-03-02T05:03:38.483Z,15.23
2023-03-02T05:05:39.183Z,15.21
2023-03-02T05:07:39.916Z,15.23
2023-03-02T05:09:40.613Z,15.19
2023-03-02T05:11:41.311Z,15.20
2023-03-02T05:13:42.048Z,15.21
2023-03-02T05:15:42.752Z,15.19
2023-03-02T05:17:43.443Z,15.17
2023-03-02T05:19:44.160Z,15.20
2023-03-02T05:21:44.860Z,15.19
2023-03-02T05:23:45.582Z,15.15
2023-03-02T05:25:46.290Z,15.19
2023-03-02T05:27:46.987Z,15.13
2023-03-02T05:29:47.810Z,15.17
2023-03-02T05:31:48.556Z,15.17
2023-03-02T05:33:49.279Z,15.15
2023-03-02T05:35:50.038Z,15.15
2023-03-02T05:37:50.702Z,15.13
2023-03-02T05:39:51.399Z,15.13
2023-03-02T05:41:52.161Z,15.13
2023-03-02T05:43:52.846Z,15.12
2023-03-02T05:45:59.564Z,15.17
2023-03-02T05:47:54.292Z,15.13
2023-03-02T05:49:54.996Z,15.15
2023-03-02T05:51:55.685Z,15.12
2023-03-02T05:53:56.393Z,15.15
2023-03-02T05:55:57.087Z,15.13
2023-03-02T05:57:57.807Z,15.13
2023-03-02T05:59:58.502Z,15.13
2023-03-02T06:01:59.393Z,15.13
2023-03-02T06:04:00.134Z,15.13
2023-03-02T06:06:00.802Z,15.13
2023-03-02T06:08:01.534Z,15.12
2023-03-02T06:10:02.232Z,15.13
2023-03-02T06:12:02.943Z,15.15
2023-03-02T06:14:03.650Z,15.15
2023-03-02T06:16:04.434Z,15.13
2023-03-02T06:18:05.131Z,15.15
2023-03-02T06:20:05.843Z,15.15
2023-03-02T06:22:06.541Z,15.15
2023-03-02T06:24:07.261Z,15.13
2023-03-02T06:26:07.974Z,15.11
2023-03-02T06:28:08.644Z,15.15
2023-03-02T06:30:09.373Z,15.12
2023-03-02T06:32:10.251Z,15.13
2023-03-02T06:34:10.943Z,15.13
2023-03-02T06:36:11.704Z,15.13
2023-03-02T06:38:12.391Z,15.15
2023-03-02T06:40:13.151Z,15.11
2023-03-02T06:42:13.896Z,15.09
2023-03-02T06:44:14.613Z,15.13
2023-03-02T06:46:15.332Z,15.12
2023-03-02T06:48:16.051Z,15.12
2023-03-02T06:50:16.743Z,15.13
2023-03-02T06:52:17.448Z,15.13
2023-03-02T06:54:18.175Z,15.12
2023-03-02T06:56:18.878Z,15.09
2023-03-02T06:58:19.595Z,15.11
2023-03-02T07:00:20.327Z,15.12
2023-03-02T07:02:21.034Z,15.12
2023-03-02T07:04:21.734Z,15.11
2023-03-02T07:06:22.444Z,15.12
2023-03-02T07:08:23.140Z,15.11
2023-03-02T07:10:23.840Z,15.11
2023-03-02T07:12:24.557Z,15.11
2023-03-02T07:14:25.287Z,15.09
2023-03-02T07:16:26.028Z,15.11
2023-03-02T07:18:26.737Z,15.09
2023-03-02T07:20:27.527Z,15.12
2023-03-02T07:22:28.241Z,15.09
2023-03-02T07:24:28.964Z,15.09
2023-03-02T07:26:29.662Z,15.11
2023-03-02T07:28:30.380Z,15.27
2023-03-02T07:30:31.291Z,15.30
2023-03-02T07:32:32.095Z,15.31
2023-03-02T07:34:32.831Z,15.30
2023-03-02T07:36:33.525Z,15.26
2023-03-02T07:38:34.255Z,15.23
2023-03-02T07:40:34.957Z,15.21
2023-03-02T07:42:35.660Z,15.21
2023-03-02T07:44:36.391Z,15.20
2023-03-02T07:46:37.167Z,15.19
2023-03-02T07:48:37.869Z,15.20
2023-03-02T07:50:38.606Z,15.20
2023-03-02T07:52:39.295Z,15.20
2023-03-02T07:54:40.012Z,15.19
2023-03-02T07:56:40.716Z,15.17
2023-03-02T07:58:41.417Z,15.19
2023-03-02T08:00:42.780Z,15.19
2023-03-02T08:02:43.100Z,15.19
2023-03-02T08:04:43.764Z,15.17
2023-03-02T08:06:44.467Z,15.20
2023-03-02T08:08:45.216Z,15.17
2023-03-02T08:10:45.938Z,15.21
2023-03-02T08:12:46.669Z,15.20
2023-03-02T08:14:48.052Z,15.21
2023-03-02T08:16:48.256Z,15.23
2023-03-02T08:18:48.974Z,15.24
2023-03-02T08:20:49.685Z,15.23
2023-03-02T08:22:50.395Z,15.21
2023-03-02T08:24:51.091Z,15.20
2023-03-02T08:26:51.826Z,15.23
2023-03-02T08:28:52.552Z,15.24
2023-03-02T08:30:53.309Z,15.21
2023-03-02T08:32:53.994Z,15.21
2023-03-02T08:34:54.820Z,15.24
2023-03-02T08:36:55.549Z,15.20
2023-03-02T08:38:56.253Z,15.23
2023-03-02T08:40:56.944Z,15.23
2023-03-02T08:42:57.711Z,15.20
2023-03-02T08:44:58.422Z,15.19
2023-03-02T08:46:59.155Z,15.20
2023-03-02T08:48:59.850Z,15.21
2023-03-02T08:51:00.547Z,15.20
2023-03-02T08:53:01.269Z,15.23
2023-03-02T08:55:03.748Z,15.21
2023-03-02T08:57:02.871Z,15.24
2023-03-02T08:59:03.590Z,15.23
2023-03-02T09:01:04.336Z,15.23
2023-03-02T09:03:05.033Z,15.24
2023-03-02T09:05:05.745Z,15.24
2023-03-02T09:07:06.463Z,15.21
2023-03-02T09:09:07.198Z,15.26
2023-03-02T09:11:07.892Z,15.21
2023-03-02T09:13:08.826Z,15.24
2023-03-02T09:15:09.496Z,15.26
2023-03-02T09:17:10.201Z,15.23
2023-03-02T09:19:10.964Z,15.24
2023-03-02T09:21:11.638Z,15.27
2023-03-02T09:23:12.342Z,15.26
2023-03-02T09:25:13.120Z,15.26
2023-03-02T09:27:13.828Z,15.26
2023-03-02T09:29:14.562Z,15.27
2023-03-02T09:31:15.301Z,15.26
2023-03-02T09:33:16.065Z,15.26
2023-03-02T09:35:16.750Z,15.27
2023-03-02T09:37:17.455Z,15.28
2023-03-02T09:39:18.171Z,15.27
2023-03-02T09:41:18.882Z,15.26
2023-03-02T09:43:19.587Z,15.27
2023-03-02T09:45:20.311Z,15.28
2023-03-02T09:47:34.646Z,15.28
2023-03-02T09:49:21.609Z,15.27
2023-03-02T09:51:22.335Z,15.28
2023-03-02T09:53:23.022Z,15.27
2023-03-02T09:55:23.724Z,15.31
2023-03-02T09:57:24.429Z,15.30
2023-03-02T09:59:25.153Z,15.28
2023-03-02T10:01:25.847Z,15.31
2023-03-02T10:03:26.583Z,15.33
2023-03-02T10:05:27.258Z,15.30
2023-03-02T10:07:27.976Z,15.33
2023-03-02T10:09:28.691Z,15.35
2023-03-02T10:11:29.411Z,15.33
2023-03-02T10:13:30.145Z,15.35
2023-03-02T10:15:30.853Z,15.36
2023-03-02T10:17:31.543Z,15.36
2023-03-02T10:19:32.284Z,15.36
2023-03-02T10:21:32.972Z,15.38
2023-03-02T10:23:33.725Z,15.36
2023-03-02T10:25:34.438Z,15.36
2023-03-02T10:27:35.157Z,15.39
2023-03-02T10:29:35.864Z,15.38
2023-03-02T10:31:36.585Z,15.39
2023-03-02T10:33:37.300Z,15.41
2023-03-02T10:35:38.065Z,15.41
2023-03-02T10:37:38.742Z,15.39
2023-03-02T10:39:39.429Z,15.42
2023-03-02T10:41:41.163Z,15.39
2023-03-02T10:43:40.952Z,15.43
2023-03-02T10:45:41.693Z,15.45
2023-03-02T10:47:42.410Z,15.43
2023-03-02T10:49:43.128Z,15.48
2023-03-02T10:51:43.837Z,15.46
2023-03-02T10:53:44.538Z,15.49
2023-03-02T10:55:45.270Z,15.49
2023-03-02T10:57:46.050Z,15.46
2023-03-02T10:59:46.794Z,15.48
2023-03-02T11:01:47.475Z,15.54
2023-03-02T11:03:48.179Z,15.48
2023-03-02T11:05:48.875Z,15.51
2023-03-02T11:07:49.573Z,15.54
2023-03-02T11:09:50.300Z,15.52
2023-03-02T11:11:51.058Z,15.57
2023-03-02T11:13:51.770Z,15.57
2023-03-02T11:15:52.526Z,15.54
2023-03-02T11:17:53.226Z,15.57
2023-03-02T11:19:53.993Z,15.60
2023-03-02T11:21:54.693Z,15.63
2023-03-02T11:23:55.391Z,15.59
2023-03-02T11:25:56.118Z,15.61
2023-03-02T11:27:56.876Z,15.61
2023-03-02T11:29:57.577Z,15.66
2023-03-02T11:31:58.437Z,15.68
2023-03-02T11:34:04.773Z,15.67
2023-03-02T11:35:59.830Z,15.70
2023-03-02T11:38:00.508Z,15.70
2023-03-02T11:40:01.256Z,15.74
2023-03-02T11:42:02.016Z,15.72
2023-03-02T11:44:02.714Z,15.75
2023-03-02T11:46:21.123Z,15.72
2023-03-02T11:48:04.880Z,15.78
2023-03-02T11:50:04.752Z,15.78
2023-03-02T11:52:05.485Z,15.81
2023-03-02T11:54:06.182Z,15.82
2023-03-02T11:56:06.950Z,15.82
2023-03-02T11:58:07.646Z,15.82
2023-03-02T12:00:08.357Z,15.85
2023-03-02T12:02:09.093Z,15.85
2023-03-02T12:04:10.101Z,15.86
2023-03-02T12:06:10.794Z,15.86
2023-03-02T12:08:11.502Z,15.92
2023-03-02T12:10:12.220Z,15.92
2023-03-02T12:12:12.957Z,15.93
2023-03-02T12:14:13.645Z,15.93
2023-03-02T12:16:14.455Z,15.97
2023-03-02T12:18:15.138Z,15.99
2023-03-02T12:20:15.837Z,15.97
2023-03-02T12:22:16.549Z,16.01
2023-03-02T12:24:17.258Z,16.00
2023-03-02T12:26:17.957Z,16.00
2023-03-02T12:28:18.717Z,16.00
2023-03-02T12:30:19.431Z,16.03
2023-03-02T12:32:20.118Z,16.06
2023-03-02T12:34:20.831Z,16.07
2023-03-02T12:36:21.535Z,16.09
2023-03-02T12:38:22.234Z,16.07
2023-03-02T12:40:22.935Z,16.12
2023-03-02T12:42:23.626Z,16.12
2023-03-02T12:44:24.323Z,16.14
2023-03-02T12:46:25.055Z,16.14
2023-03-02T12:48:26.074Z,16.16
2023-03-02T12:50:26.350Z,16.20
2023-03-02T12:52:27.271Z,16.20
2023-03-02T12:54:27.941Z,16.22
2023-03-02T12:56:28.636Z,16.22
2023-03-02T12:58:29.382Z,16.23
2023-03-02T13:00:30.087Z,16.30
2023-03-02T13:02:30.807Z,16.30
2023-03-02T13:04:31.632Z,16.31
2023-03-02T13:06:32.614Z,16.31
2023-03-02T13:08:32.974Z,16.34
2023-03-02T13:10:33.671Z,16.44
2023-03-02T13:12:34.356Z,16.41
2023-03-02T13:14:35.083Z,16.44
2023-03-02T13:16:36.135Z,16.48
2023-03-02T13:18:36.774Z,16.48
2023-03-02T13:20:37.509Z,16.52
2023-03-02T13:22:38.227Z,16.58
2023-03-02T13:24:38.967Z,16.67
2023-03-02T13:26:39.714Z,16.70
2023-03-02T13:28:40.390Z,16.70
2023-03-02T13:30:41.220Z,16.81
2023-03-02T13:32:41.900Z,16.85
2023-03-02T13:34:42.590Z,16.86
2023-03-02T13:36:43.305Z,16.90
2023-03-02T13:38:43.998Z,16.96
2023-03-02T13:40:44.780Z,17.04
2023-03-02T13:42:45.503Z,17.08
2023-03-02T13:44:46.203Z,17.14
2023-03-02T13:46:46.894Z,17.15
2023-03-02T13:48:48.616Z,17.18
2023-03-02T13:50:48.324Z,17.28
2023-03-02T13:52:49.017Z,17.30
2023-03-02T13:54:49.747Z,17.35
2023-03-02T13:56:50.450Z,17.40
2023-03-02T13:58:51.151Z,17.46
2023-03-02T14:00:51.850Z,17.55
2023-03-02T14:02:52.593Z,17.59
2023-03-02T14:04:53.384Z,17.62
2023-03-02T14:06:54.105Z,17.67
2023-03-02T14:08:54.789Z,17.74
2023-03-02T14:10:55.539Z,17.81
2023-03-02T14:12:56.233Z,17.92
2023-03-02T14:14:56.977Z,18.00
2023-03-02T14:16:57.665Z,18.00
2023-03-02T14:18:58.350Z,18.12
2023-03-02T16:36:59.780Z,18.28
2023-03-02T16:39:01.481Z,18.15
2023-03-02T16:41:02.150Z,18.12
2023-03-02T16:43:02.876Z,18.07
2023-03-02T16:45:03.571Z,18.03
2023-03-02T16:47:04.313Z,18.03
2023-03-02T16:49:05.036Z,17.97
2023-03-02T16:51:05.730Z,18.00
2023-03-02T16:53:06.507Z,17.97
2023-03-02T16:55:07.225Z,17.97
2023-03-02T16:57:07.935Z,17.92
2023-03-02T16:59:08.646Z,17.91
2023-03-02T17:01:09.619Z,17.89
2023-03-02T17:03:10.778Z,17.89
2023-03-02T17:05:10.988Z,17.88
2023-03-02T17:07:11.861Z,17.87
2023-03-02T17:09:13.578Z,17.91
2023-03-02T17:11:13.309Z,18.00
2023-03-02T17:13:14.042Z,18.04
2023-03-02T17:15:14.922Z,18.15
2023-03-02T17:17:15.629Z,18.13
2023-03-02T17:19:16.347Z,18.15
2023-03-02T17:21:17.065Z,18.18
2023-03-02T17:23:17.778Z,18.13
2023-03-02T17:25:18.498Z,18.12
2023-03-02T17:27:25.280Z,18.06
2023-03-02T17:29:19.878Z,18.10
2023-03-02T17:41:22.460Z,18.10
2023-03-02T17:50:57.328Z,18.07
2023-03-02T17:52:58.725Z,18.02
2023-03-02T17:54:59.779Z,18.02
2023-03-02T17:57:00.010Z,17.99
2023-03-02T17:59:00.934Z,17.94
2023-03-02T18:01:01.310Z,17.88
2023-03-02T18:03:02.216Z,17.87
2023-03-02T18:05:02.621Z,17.85
2023-03-02T18:07:03.176Z,17.82
2023-03-02T18:09:03.602Z,17.74
2023-03-02T18:11:03.825Z,17.78
2023-03-02T18:13:04.661Z,17.74
2023-03-02T18:15:05.433Z,17.73
2023-03-02T18:17:06.292Z,17.69
2023-03-02T18:19:07.158Z,17.70
2023-03-02T18:21:08.001Z,17.67
2023-03-02T18:23:08.830Z,17.67
2023-03-02T18:25:09.690Z,17.64
2023-03-02T18:27:10.739Z,17.62
2023-03-02T18:29:11.034Z,17.63
2023-03-02T18:31:11.845Z,17.59
2023-03-02T18:33:12.714Z,17.57
2023-03-02T18:35:12.932Z,17.55
2023-03-02T18:37:13.665Z,17.53
2023-03-02T18:39:14.663Z,17.53
2023-03-02T18:41:14.948Z,17.53
2023-03-02T18:43:15.875Z,17.47
2023-03-02T18:45:16.175Z,17.50
2023-03-02T18:47:17.061Z,17.50
2023-03-02T18:49:17.406Z,17.48
2023-03-02T18:51:18.257Z,17.43
2023-03-02T18:53:19.081Z,17.44
2023-03-02T18:55:20.017Z,17.47
2023-03-02T18:57:20.413Z,17.41
2023-03-02T18:59:22.000Z,17.41
2023-03-02T19:01:21.873Z,17.41
2023-03-02T19:03:22.751Z,17.41
2023-03-02T19:05:23.169Z,17.35
2023-03-02T19:07:23.676Z,17.35
2023-03-02T19:09:24.594Z,17.35
2023-03-02T19:11:24.970Z,17.35
2023-03-02T19:13:25.351Z,17.32
2023-03-02T19:15:26.433Z,17.33
2023-03-02T19:17:26.888Z,17.30
2023-03-02T19:19:27.276Z,17.29
2023-03-02T19:21:27.995Z,17.28
2023-03-02T19:23:28.772Z,17.25
2023-03-02T19:25:29.598Z,17.26
2023-03-02T19:27:30.561Z,17.25
2023-03-02T19:29:30.948Z,17.23
2023-03-02T19:31:31.486Z,17.25
2023-03-02T19:33:31.913Z,17.22
2023-03-02T19:35:32.831Z,17.20
2023-03-02T19:37:33.692Z,17.20
2023-03-02T19:39:34.632Z,17.17
2023-03-02T19:41:35.000Z,17.15
2023-03-02T19:43:35.405Z,17.13
2023-03-02T19:45:36.386Z,17.14
2023-03-02T19:47:36.770Z,17.14
2023-03-02T19:49:37.678Z,17.13
2023-03-02T19:51:38.042Z,17.11
2023-03-02T19:53:39.258Z,17.13
2023-03-02T19:58:51.278Z,17.10
2023-03-02T20:00:29.984Z,17.08
2023-03-02T20:02:30.943Z,17.08
2023-03-02T20:04:31.431Z,17.08
2023-03-02T20:06:32.412Z,17.04
2023-03-02T20:08:32.853Z,17.06
2023-03-02T20:10:34.612Z,17.06
2023-03-02T20:12:34.569Z,17.03
2023-03-02T20:14:35.481Z,17.03
2023-03-02T20:16:36.486Z,17.04
2023-03-02T20:18:37.504Z,17.03
2023-03-02T20:20:37.442Z,16.98
2023-03-02T20:22:38.425Z,16.98
2023-03-02T20:24:38.738Z,16.95
2023-03-02T20:26:39.692Z,16.96
2023-03-02T20:28:40.617Z,16.95
2023-03-02T20:30:41.561Z,16.95
2023-03-02T20:32:42.434Z,16.89
2023-03-02T20:34:43.555Z,16.89
2023-03-02T20:36:44.039Z,16.90
2023-03-02T20:38:44.644Z,16.85
2023-03-02T20:40:45.084Z,16.86
2023-03-02T20:42:46.009Z,16.86
2023-03-02T20:44:46.939Z,16.86
2023-03-02T20:46:47.878Z,16.86
2023-03-02T20:48:48.773Z,16.83
2023-03-02T20:50:49.882Z,16.81
2023-03-02T20:52:50.329Z,16.83
2023-03-02T20:54:50.913Z,16.81
2023-03-02T20:56:51.511Z,16.78
2023-03-02T20:58:51.937Z,16.85
2023-03-02T21:00:52.830Z,16.83
2023-03-02T21:02:54.006Z,16.78
2023-03-02T21:04:54.524Z,16.78
2023-03-02T21:06:55.113Z,16.77
2023-03-02T21:08:55.551Z,16.78
2023-03-02T21:10:56.551Z,16.81
2023-03-02T21:12:57.073Z,16.80
2023-03-02T21:14:57.538Z,16.75
2023-03-02T21:16:58.501Z,16.78
2023-03-02T21:18:58.971Z,16.81
2023-03-02T21:20:59.922Z,16.78
2023-03-02T21:23:00.322Z,16.80
2023-03-02T21:25:01.604Z,16.77
2023-03-02T21:27:02.368Z,16.75
2023-03-02T21:29:02.778Z,16.78
2023-03-02T21:31:03.728Z,16.74
2023-03-02T21:33:04.615Z,16.78
2023-03-02T21:35:05.614Z,16.75
2023-03-02T21:37:06.044Z,16.75
2023-03-02T21:39:06.927Z,16.75
2023-03-02T21:41:07.699Z,16.73
2023-03-02T21:43:08.645Z,16.75
2023-03-02T21:45:09.565Z,16.73
2023-03-02T21:47:10.738Z,16.70
2023-03-02T21:49:11.165Z,16.74
2023-03-02T21:51:12.160Z,16.74
2023-03-02T21:53:13.472Z,16.70
2023-03-02T21:55:13.586Z,16.71
2023-03-02T21:57:14.044Z,16.70
2023-03-02T21:59:14.850Z,16.71
2023-03-02T22:01:16.045Z,16.71
